sensor_id;sensor_type;location;lat;lon;timestamp;pressure;altitude;pressure_sealevel;temperature;humidity
45523;BME280;31254;51.680;5.394;2023-08-17T00:00:42;102022.63;;;22.71;62.37
45523;BME280;31254;51.680;5.394;2023-08-17T00:03:11;102032.09;;;22.76;62.32
45523;BME280;31254;51.680;5.394;2023-08-17T00:05:48;101911.06;;;22.02;62.04
45523;BME280;31254;51.680;5.394;2023-08-17T00:08:18;101875.13;;;21.72;62.12
45523;BME280;31254;51.680;5.394;2023-08-17T00:10:44;101975.09;;;22.37;61.94
45523;BME280;31254;51.680;5.394;2023-08-17T00:13:27;102042.75;;;22.73;62.23
45523;BME280;31254;51.680;5.394;2023-08-17T00:15:55;101917.63;;;21.95;62.26
45523;BME280;31254;51.680;5.394;2023-08-17T00:18:32;102045.75;;;22.71;62.36
45523;BME280;31254;51.680;5.394;2023-08-17T00:21:01;101880.28;;;21.76;62.04
45523;BME280;31254;51.680;5.394;2023-08-17T00:23:37;102022.81;;;22.69;62.12
45523;BME280;31254;51.680;5.394;2023-08-17T00:26:07;101925.41;;;22.06;62.20
45523;BME280;31254;51.680;5.394;2023-08-17T00:28:39;101891.91;;;21.86;62.46
45523;BME280;31254;51.680;5.394;2023-08-17T00:31:14;101984.53;;;22.43;62.38
45523;BME280;31254;51.680;5.394;2023-08-17T00:33:41;101969.75;;;22.36;62.50
45523;BME280;31254;51.680;5.394;2023-08-17T00:36:21;102010.75;;;22.55;62.77
45523;BME280;31254;51.680;5.394;2023-08-17T00:38:48;101890.19;;;21.85;62.29
45523;BME280;31254;51.680;5.394;2023-08-17T00:41:22;101978.09;;;22.36;62.65
45523;BME280;31254;51.680;5.394;2023-08-17T00:43:54;101924.75;;;22.04;62.23
45523;BME280;31254;51.680;5.394;2023-08-17T00:46:24;102025.78;;;22.68;62.63
45523;BME280;31254;51.680;5.394;2023-08-17T00:48:58;101980.66;;;22.37;62.50
45523;BME280;31254;51.680;5.394;2023-08-17T00:51:33;101999.31;;;22.43;62.53
45523;BME280;31254;51.680;5.394;2023-08-17T00:54:06;102020.34;;;22.53;62.69
45523;BME280;31254;51.680;5.394;2023-08-17T00:56:35;102048.03;;;22.68;62.41
45523;BME280;31254;51.680;5.394;2023-08-17T00:59:02;102049.13;;;22.67;62.79
45523;BME280;31254;51.680;5.394;2023-08-17T01:01:36;102029.75;;;22.52;62.76
45523;BME280;31254;51.680;5.394;2023-08-17T01:04:03;101991.84;;;22.22;62.98
45523;BME280;31254;51.680;5.394;2023-08-17T01:06:30;102040.94;;;22.58;62.99
45523;BME280;31254;51.680;5.394;2023-08-17T01:09:10;102043.25;;;22.55;63.15
45523;BME280;31254;51.680;5.394;2023-08-17T01:11:41;102008.59;;;22.29;63.02
45523;BME280;31254;51.680;5.394;2023-08-17T01:14:27;102046.63;;;22.50;63.07
45523;BME280;31254;51.680;5.394;2023-08-17T01:17:03;101973.31;;;22.08;62.98
45523;BME280;31254;51.680;5.394;2023-08-17T01:19:39;102033.53;;;22.44;63.16
45523;BME280;31254;51.680;5.394;2023-08-17T01:22:17;102030.09;;;22.42;63.13
45523;BME280;31254;51.680;5.394;2023-08-17T01:24:54;102030.09;;;22.42;63.43
45523;BME280;31254;51.680;5.394;2023-08-17T01:27:36;102018.69;;;22.37;63.55
45523;BME280;31254;51.680;5.394;2023-08-17T01:30:04;101878.47;;;21.46;63.39
45523;BME280;31254;51.680;5.394;2023-08-17T01:35:28;102029.38;;;22.33;63.61
45523;BME280;31254;51.680;5.394;2023-08-17T01:38:14;102025.09;;;22.31;63.25
45523;BME280;31254;51.680;5.394;2023-08-17T01:40:45;102019.72;;;22.29;63.84
45523;BME280;31254;51.680;5.394;2023-08-17T01:43:18;101990.00;;;22.08;63.66
45523;BME280;31254;51.680;5.394;2023-08-17T01:45:46;102012.94;;;22.17;63.78
45523;BME280;31254;51.680;5.394;2023-08-17T01:48:19;101938.81;;;21.74;63.65
45523;BME280;31254;51.680;5.394;2023-08-17T01:50:52;102027.97;;;22.22;63.47
45523;BME280;31254;51.680;5.394;2023-08-17T01:53:26;102017.25;;;22.19;63.64
45523;BME280;31254;51.680;5.394;2023-08-17T01:55:59;101988.00;;;22.02;63.75
45523;BME280;31254;51.680;5.394;2023-08-17T01:58:26;102020.03;;;22.19;63.49
45523;BME280;31254;51.680;5.394;2023-08-17T02:00:59;102007.97;;;22.12;63.70
45523;BME280;31254;51.680;5.394;2023-08-17T02:03:26;102018.50;;;22.17;63.95
45523;BME280;31254;51.680;5.394;2023-08-17T02:06:01;101992.91;;;22.00;63.43
45523;BME280;31254;51.680;5.394;2023-08-17T02:08:29;102022.94;;;22.11;63.78
45523;BME280;31254;51.680;5.394;2023-08-17T02:11:02;101981.25;;;21.89;63.77
45523;BME280;31254;51.680;5.394;2023-08-17T02:13:29;101981.19;;;21.83;63.95
45523;BME280;31254;51.680;5.394;2023-08-17T02:15:56;102032.72;;;22.07;63.45
45523;BME280;31254;51.680;5.394;2023-08-17T02:18:29;102014.44;;;21.98;63.51
45523;BME280;31254;51.680;5.394;2023-08-17T02:20:58;102023.03;;;22.03;63.64
45523;BME280;31254;51.680;5.394;2023-08-17T02:23:25;102026.06;;;22.01;63.78
45523;BME280;31254;51.680;5.394;2023-08-17T02:25:58;102007.59;;;21.94;63.82
45523;BME280;31254;51.680;5.394;2023-08-17T02:28:25;101976.16;;;21.71;63.58
45523;BME280;31254;51.680;5.394;2023-08-17T02:30:59;102006.72;;;21.93;63.88
45523;BME280;31254;51.680;5.394;2023-08-17T02:33:25;101966.91;;;21.64;64.05
45523;BME280;31254;51.680;5.394;2023-08-17T02:36:06;101958.31;;;21.59;63.84
45523;BME280;31254;51.680;5.394;2023-08-17T02:38:39;101984.47;;;21.71;63.80
45523;BME280;31254;51.680;5.394;2023-08-17T02:41:06;101989.25;;;21.78;63.78
45523;BME280;31254;51.680;5.394;2023-08-17T02:43:39;101972.91;;;21.68;63.82
45523;BME280;31254;51.680;5.394;2023-08-17T02:46:06;101906.19;;;21.25;63.91
45523;BME280;31254;51.680;5.394;2023-08-17T02:48:40;101970.91;;;21.62;63.99
45523;BME280;31254;51.680;5.394;2023-08-17T02:51:21;102003.22;;;21.84;64.20
45523;BME280;31254;51.680;5.394;2023-08-17T02:53:54;101964.31;;;21.63;63.94
45523;BME280;31254;51.680;5.394;2023-08-17T02:56:27;102012.88;;;21.88;64.21
45523;BME280;31254;51.680;5.394;2023-08-17T02:58:54;102018.44;;;21.88;63.79
45523;BME280;31254;51.680;5.394;2023-08-17T03:01:20;101941.63;;;21.44;63.72
45523;BME280;31254;51.680;5.394;2023-08-17T03:03:54;101915.66;;;21.30;63.52
45523;BME280;31254;51.680;5.394;2023-08-17T03:06:23;102015.66;;;21.88;63.82
45523;BME280;31254;51.680;5.394;2023-08-17T03:08:50;101928.06;;;21.34;63.88
45523;BME280;31254;51.680;5.394;2023-08-17T03:11:36;101903.34;;;21.18;63.92
45523;BME280;31254;51.680;5.394;2023-08-17T03:14:03;101911.53;;;21.26;63.79
45523;BME280;31254;51.680;5.394;2023-08-17T03:16:39;102022.66;;;21.84;64.22
45523;BME280;31254;51.680;5.394;2023-08-17T03:19:06;101944.81;;;21.41;63.85
45523;BME280;31254;51.680;5.394;2023-08-17T03:21:34;101925.50;;;21.33;64.20
45523;BME280;31254;51.680;5.394;2023-08-17T03:24:07;101978.19;;;21.63;63.82
45523;BME280;31254;51.680;5.394;2023-08-17T03:26:43;102014.50;;;21.83;63.81
45523;BME280;31254;51.680;5.394;2023-08-17T03:29:19;101962.06;;;21.51;63.82
45523;BME280;31254;51.680;5.394;2023-08-17T03:31:45;101941.16;;;21.41;64.08
45523;BME280;31254;51.680;5.394;2023-08-17T03:34:12;101899.72;;;21.17;63.79
45523;BME280;31254;51.680;5.394;2023-08-17T03:36:45;101902.34;;;21.04;64.10
45523;BME280;31254;51.680;5.394;2023-08-17T03:39:21;101960.41;;;21.42;63.77
45523;BME280;31254;51.680;5.394;2023-08-17T03:41:50;101921.34;;;21.22;64.07
45523;BME280;31254;51.680;5.394;2023-08-17T03:44:25;101986.53;;;21.63;63.86
45523;BME280;31254;51.680;5.394;2023-08-17T03:46:58;101991.41;;;21.61;64.25
45523;BME280;31254;51.680;5.394;2023-08-17T03:49:31;101948.06;;;21.30;63.99
45523;BME280;31254;51.680;5.394;2023-08-17T03:52:11;101997.16;;;21.59;64.00
45523;BME280;31254;51.680;5.394;2023-08-17T03:54:38;101856.56;;;20.78;63.75
45523;BME280;31254;51.680;5.394;2023-08-17T03:57:13;101860.38;;;20.77;64.16
45523;BME280;31254;51.680;5.394;2023-08-17T03:59:46;101922.41;;;21.06;64.29
45523;BME280;31254;51.680;5.394;2023-08-17T04:02:19;101849.97;;;20.64;64.16
45523;BME280;31254;51.680;5.394;2023-08-17T04:04:46;102011.13;;;21.51;64.10
45523;BME280;31254;51.680;5.394;2023-08-17T04:07:20;101945.72;;;21.12;63.99
45523;BME280;31254;51.680;5.394;2023-08-17T04:09:54;101951.19;;;21.05;64.32
45523;BME280;31254;51.680;5.394;2023-08-17T04:12:24;101866.19;;;20.53;64.26
45523;BME280;31254;51.680;5.394;2023-08-17T04:14:55;101912.00;;;20.78;64.74
45523;BME280;31254;51.680;5.394;2023-08-17T04:17:35;102015.66;;;21.37;64.32
45523;BME280;31254;51.680;5.394;2023-08-17T04:20:02;101973.00;;;21.08;64.65
45523;BME280;31254;51.680;5.394;2023-08-17T04:22:35;102026.94;;;21.35;64.30
45523;BME280;31254;51.680;5.394;2023-08-17T04:25:05;101911.75;;;20.73;64.58
45523;BME280;31254;51.680;5.394;2023-08-17T04:27:32;101847.56;;;20.32;64.44
45523;BME280;31254;51.680;5.394;2023-08-17T04:30:10;101946.41;;;20.84;64.53
45523;BME280;31254;51.680;5.394;2023-08-17T04:32:37;102036.50;;;21.33;64.62
45523;BME280;31254;51.680;5.394;2023-08-17T04:35:07;101888.00;;;20.41;64.43
45523;BME280;31254;51.680;5.394;2023-08-17T04:37:40;101939.84;;;20.70;64.35
45523;BME280;31254;51.680;5.394;2023-08-17T04:40:22;101890.25;;;20.37;64.59
45523;BME280;31254;51.680;5.394;2023-08-17T04:42:51;102034.72;;;21.25;64.62
45523;BME280;31254;51.680;5.394;2023-08-17T04:45:24;101928.13;;;20.60;64.42
45523;BME280;31254;51.680;5.394;2023-08-17T04:47:59;102038.06;;;21.21;64.98
45523;BME280;31254;51.680;5.394;2023-08-17T04:50:46;101988.28;;;20.89;64.85
45523;BME280;31254;51.680;5.394;2023-08-17T04:53:13;102029.31;;;21.09;65.25
45523;BME280;31254;51.680;5.394;2023-08-17T04:55:46;102013.34;;;20.96;64.62
45523;BME280;31254;51.680;5.394;2023-08-17T04:58:13;102018.31;;;21.00;65.17
45523;BME280;31254;51.680;5.394;2023-08-17T05:00:46;102025.41;;;21.03;64.90
45523;BME280;31254;51.680;5.394;2023-08-17T05:03:14;101894.84;;;20.30;65.04
45523;BME280;31254;51.680;5.394;2023-08-17T05:05:58;101993.00;;;20.89;65.14
45523;BME280;31254;51.680;5.394;2023-08-17T05:08:31;102001.78;;;20.92;65.20
45523;BME280;31254;51.680;5.394;2023-08-17T05:11:04;101991.44;;;20.86;65.16
45523;BME280;31254;51.680;5.394;2023-08-17T05:13:38;102019.03;;;21.03;65.16
45523;BME280;31254;51.680;5.394;2023-08-17T05:16:04;102000.94;;;20.92;65.22
45523;BME280;31254;51.680;5.394;2023-08-17T05:18:31;102005.25;;;20.94;65.42
45523;BME280;31254;51.680;5.394;2023-08-17T05:21:04;101992.31;;;20.87;65.24
45523;BME280;31254;51.680;5.394;2023-08-17T05:23:31;102002.34;;;20.88;65.28
45523;BME280;31254;51.680;5.394;2023-08-17T05:25:58;101985.91;;;20.86;65.08
45523;BME280;31254;51.680;5.394;2023-08-17T05:28:31;101990.88;;;20.91;65.16
45523;BME280;31254;51.680;5.394;2023-08-17T05:31:05;101990.22;;;20.89;65.18
45523;BME280;31254;51.680;5.394;2023-08-17T05:33:38;102005.34;;;21.01;65.13
45523;BME280;31254;51.680;5.394;2023-08-17T05:36:13;102005.53;;;20.99;64.87
45523;BME280;31254;51.680;5.394;2023-08-17T05:38:42;101994.34;;;20.93;65.06
45523;BME280;31254;51.680;5.394;2023-08-17T05:41:08;101989.09;;;20.98;65.32
45523;BME280;31254;51.680;5.394;2023-08-17T05:43:41;101986.50;;;20.96;64.82
45523;BME280;31254;51.680;5.394;2023-08-17T05:46:08;101994.91;;;21.03;65.22
45523;BME280;31254;51.680;5.394;2023-08-17T05:48:41;101993.38;;;21.00;64.81
45523;BME280;31254;51.680;5.394;2023-08-17T05:51:14;102003.41;;;21.02;65.06
45523;BME280;31254;51.680;5.394;2023-08-17T05:53:54;101976.91;;;20.84;65.13
45523;BME280;31254;51.680;5.394;2023-08-17T05:56:21;101963.34;;;20.74;64.88
45523;BME280;31254;51.680;5.394;2023-08-17T05:58:54;101978.38;;;20.80;64.87
45523;BME280;31254;51.680;5.394;2023-08-17T06:01:22;102034.50;;;21.12;64.79
45523;BME280;31254;51.680;5.394;2023-08-17T06:03:54;102019.41;;;20.99;64.91
45523;BME280;31254;51.680;5.394;2023-08-17T06:06:21;102028.84;;;21.05;65.29
45523;BME280;31254;51.680;5.394;2023-08-17T06:08:54;102047.13;;;21.14;65.17
45523;BME280;31254;51.680;5.394;2023-08-17T06:11:28;102035.06;;;21.07;65.12
45523;BME280;31254;51.680;5.394;2023-08-17T06:13:56;102010.78;;;20.94;64.89
45523;BME280;31254;51.680;5.394;2023-08-17T06:16:23;101923.50;;;20.37;64.80
45523;BME280;31254;51.680;5.394;2023-08-17T06:18:56;102003.41;;;20.87;65.07
45523;BME280;31254;51.680;5.394;2023-08-17T06:21:23;102021.88;;;20.94;65.00
45523;BME280;31254;51.680;5.394;2023-08-17T06:23:50;101921.19;;;20.26;65.04
45523;BME280;31254;51.680;5.394;2023-08-17T06:26:22;102013.94;;;20.91;64.90
45523;BME280;31254;51.680;5.394;2023-08-17T06:28:49;101962.63;;;20.57;64.93
45523;BME280;31254;51.680;5.394;2023-08-17T06:31:15;102029.22;;;21.02;64.80
45523;BME280;31254;51.680;5.394;2023-08-17T06:33:48;102054.41;;;21.15;65.04
45523;BME280;31254;51.680;5.394;2023-08-17T06:36:38;101990.03;;;20.75;64.71
45523;BME280;31254;51.680;5.394;2023-08-17T06:39:04;102054.78;;;21.12;64.89
45523;BME280;31254;51.680;5.394;2023-08-17T06:41:40;101970.72;;;20.67;64.51
45523;BME280;31254;51.680;5.394;2023-08-17T06:44:06;101937.28;;;20.45;64.92
45523;BME280;31254;51.680;5.394;2023-08-17T06:46:40;102045.78;;;21.10;64.73
45523;BME280;31254;51.680;5.394;2023-08-17T06:49:13;101980.16;;;20.73;64.83
45523;BME280;31254;51.680;5.394;2023-08-17T06:51:53;102027.53;;;21.01;64.77
45523;BME280;31254;51.680;5.394;2023-08-17T06:54:26;101992.44;;;20.78;64.98
45523;BME280;31254;51.680;5.394;2023-08-17T06:56:53;102044.56;;;21.13;64.67
45523;BME280;31254;51.680;5.394;2023-08-17T06:59:19;102023.78;;;20.94;65.15
45523;BME280;31254;51.680;5.394;2023-08-17T07:01:52;102018.44;;;20.92;65.17
45523;BME280;31254;51.680;5.394;2023-08-17T07:04:19;102047.72;;;21.10;64.87
45523;BME280;31254;51.680;5.394;2023-08-17T07:06:46;102016.53;;;20.93;65.01
45523;BME280;31254;51.680;5.394;2023-08-17T07:09:18;101991.53;;;20.78;65.91
45523;BME280;31254;51.680;5.394;2023-08-17T07:11:53;102012.88;;;20.92;65.00
45523;BME280;31254;51.680;5.394;2023-08-17T07:14:20;102016.34;;;20.94;65.05
45523;BME280;31254;51.680;5.394;2023-08-17T07:16:48;102017.38;;;20.93;64.99
45523;BME280;31254;51.680;5.394;2023-08-17T07:19:22;102032.00;;;21.02;65.07
45523;BME280;31254;51.680;5.394;2023-08-17T07:22:08;102057.84;;;21.17;64.87
45523;BME280;31254;51.680;5.394;2023-08-17T07:24:42;102051.94;;;21.21;65.01
45523;BME280;31254;51.680;5.394;2023-08-17T07:27:08;102041.59;;;21.14;65.09
45523;BME280;31254;51.680;5.394;2023-08-17T07:29:35;102050.47;;;21.25;64.97
45523;BME280;31254;51.680;5.394;2023-08-17T07:32:15;102060.72;;;21.24;64.73
45523;BME280;31254;51.680;5.394;2023-08-17T07:34:48;102021.00;;;21.09;64.81
45523;BME280;31254;51.680;5.394;2023-08-17T07:37:21;102020.63;;;21.12;64.71
45523;BME280;31254;51.680;5.394;2023-08-17T07:39:48;101996.03;;;20.94;65.06
45523;BME280;31254;51.680;5.394;2023-08-17T07:42:21;102036.13;;;21.21;64.81
45523;BME280;31254;51.680;5.394;2023-08-17T07:44:51;102043.97;;;21.32;64.79
45523;BME280;31254;51.680;5.394;2023-08-17T07:47:33;101995.19;;;21.08;65.18
45523;BME280;31254;51.680;5.394;2023-08-17T07:50:13;102041.00;;;21.34;64.85
45523;BME280;31254;51.680;5.394;2023-08-17T07:52:40;102043.41;;;21.37;64.94
45523;BME280;31254;51.680;5.394;2023-08-17T07:55:07;102017.56;;;21.22;64.77
45523;BME280;31254;51.680;5.394;2023-08-17T07:57:47;102034.22;;;21.36;64.96
45523;BME280;31254;51.680;5.394;2023-08-17T08:00:14;102027.13;;;21.34;64.56
45523;BME280;31254;51.680;5.394;2023-08-17T08:02:48;102034.78;;;21.32;64.74
45523;BME280;31254;51.680;5.394;2023-08-17T08:05:21;102032.94;;;21.39;64.42
45523;BME280;31254;51.680;5.394;2023-08-17T08:07:55;102030.44;;;21.44;64.36
45523;BME280;31254;51.680;5.394;2023-08-17T08:10:21;102026.09;;;21.50;64.13
45523;BME280;31254;51.680;5.394;2023-08-17T08:12:48;102018.13;;;21.47;64.19
45523;BME280;31254;51.680;5.394;2023-08-17T08:15:21;101962.44;;;21.18;64.42
45523;BME280;31254;51.680;5.394;2023-08-17T08:17:47;102038.69;;;21.67;64.11
45523;BME280;31254;51.680;5.394;2023-08-17T08:20:14;101992.59;;;21.36;63.87
45523;BME280;31254;51.680;5.394;2023-08-17T08:22:46;102023.53;;;21.70;63.86
45523;BME280;31254;51.680;5.394;2023-08-17T08:25:13;102034.72;;;21.77;63.79
45523;BME280;31254;51.680;5.394;2023-08-17T08:27:40;102025.94;;;21.73;64.08
45523;BME280;31254;51.680;5.394;2023-08-17T08:30:19;102053.06;;;21.92;64.03
45523;BME280;31254;51.680;5.394;2023-08-17T08:32:46;102062.94;;;21.95;64.17
45523;BME280;31254;51.680;5.394;2023-08-17T08:35:13;102027.66;;;21.74;64.10
45523;BME280;31254;51.680;5.394;2023-08-17T08:37:45;102018.44;;;21.73;64.18
45523;BME280;31254;51.680;5.394;2023-08-17T08:40:12;102027.53;;;21.82;63.79
45523;BME280;31254;51.680;5.394;2023-08-17T08:42:47;102056.13;;;21.98;64.89
45523;BME280;31254;51.680;5.394;2023-08-17T08:45:22;102048.88;;;21.97;65.47
45523;BME280;31254;51.680;5.394;2023-08-17T08:47:49;102037.19;;;21.86;65.34
45523;BME280;31254;51.680;5.394;2023-08-17T08:50:39;102053.53;;;21.96;65.34
45523;BME280;31254;51.680;5.394;2023-08-17T08:53:14;102045.13;;;21.89;64.82
45523;BME280;31254;51.680;5.394;2023-08-17T08:55:53;102048.59;;;21.91;64.91
45523;BME280;31254;51.680;5.394;2023-08-17T08:58:37;102047.53;;;21.92;64.85
45523;BME280;31254;51.680;5.394;2023-08-17T09:01:24;102041.97;;;21.92;65.02
45523;BME280;31254;51.680;5.394;2023-08-17T09:04:01;101893.31;;;21.02;64.72
45523;BME280;31254;51.680;5.394;2023-08-17T09:06:37;102018.66;;;21.72;65.26
45523;BME280;31254;51.680;5.394;2023-08-17T09:09:11;101967.69;;;21.43;65.16
45523;BME280;31254;51.680;5.394;2023-08-17T09:11:55;102049.44;;;21.92;65.47
45523;BME280;31254;51.680;5.394;2023-08-17T09:14:34;102036.34;;;21.86;65.29
45523;BME280;31254;51.680;5.394;2023-08-17T09:17:31;101941.50;;;21.31;65.20
45523;BME280;31254;51.680;5.394;2023-08-17T09:20:44;102037.19;;;21.86;65.79
45523;BME280;31254;51.680;5.394;2023-08-17T09:23:39;102035.75;;;21.90;65.33
45523;BME280;31254;51.680;5.394;2023-08-17T09:26:30;101896.47;;;20.99;65.76
45523;BME280;31254;51.680;5.394;2023-08-17T09:29:33;101906.22;;;21.10;65.72
45523;BME280;31254;51.680;5.394;2023-08-17T09:32:56;101880.84;;;20.91;65.98
45523;BME280;31254;51.680;5.394;2023-08-17T09:36:00;101966.72;;;21.51;65.95
45523;BME280;31254;51.680;5.394;2023-08-17T09:38:34;102016.16;;;21.77;65.99
45523;BME280;31254;51.680;5.394;2023-08-17T09:41:00;102015.97;;;21.79;65.91
45523;BME280;31254;51.680;5.394;2023-08-17T09:43:27;102017.47;;;21.81;65.87
45523;BME280;31254;51.680;5.394;2023-08-17T09:46:06;102005.66;;;21.72;66.14
45523;BME280;31254;51.680;5.394;2023-08-17T09:48:34;102019.22;;;21.82;65.89
45523;BME280;31254;51.680;5.394;2023-08-17T09:51:24;102019.69;;;21.86;66.15
45523;BME280;31254;51.680;5.394;2023-08-17T09:53:52;102024.66;;;21.90;65.84
45523;BME280;31254;51.680;5.394;2023-08-17T09:56:28;101980.84;;;21.71;66.10
45523;BME280;31254;51.680;5.394;2023-08-17T09:59:02;102015.72;;;21.95;66.03
45523;BME280;31254;51.680;5.394;2023-08-17T10:01:29;102014.66;;;21.96;65.94
45523;BME280;31254;51.680;5.394;2023-08-17T10:03:57;102015.53;;;21.97;65.79
45523;BME280;31254;51.680;5.394;2023-08-17T10:06:39;101992.75;;;21.86;66.19
45523;BME280;31254;51.680;5.394;2023-08-17T10:09:11;102005.06;;;21.99;66.01
45523;BME280;31254;51.680;5.394;2023-08-17T10:11:54;101972.84;;;21.83;66.39
45523;BME280;31254;51.680;5.394;2023-08-17T10:14:33;101978.88;;;21.86;65.95
45523;BME280;31254;51.680;5.394;2023-08-17T10:17:09;101994.03;;;22.05;65.49
45523;BME280;31254;51.680;5.394;2023-08-17T10:19:43;101948.44;;;21.78;65.53
45523;BME280;31254;51.680;5.394;2023-08-17T10:22:32;102001.09;;;22.08;65.53
45523;BME280;31254;51.680;5.394;2023-08-17T10:25:08;101967.38;;;21.89;65.45
45523;BME280;31254;51.680;5.394;2023-08-17T10:27:42;101981.38;;;22.03;65.76
45523;BME280;31254;51.680;5.394;2023-08-17T10:30:15;101886.81;;;21.46;65.72
45523;BME280;31254;51.680;5.394;2023-08-17T10:32:48;102001.38;;;22.13;65.65
45523;BME280;31254;51.680;5.394;2023-08-17T10:35:15;101938.41;;;21.77;65.61
45523;BME280;31254;51.680;5.394;2023-08-17T10:37:49;101998.78;;;22.12;65.65
45523;BME280;31254;51.680;5.394;2023-08-17T10:40:34;101967.38;;;21.89;65.72
45523;BME280;31254;51.680;5.394;2023-08-17T10:43:02;101962.69;;;21.90;65.66
45523;BME280;31254;51.680;5.394;2023-08-17T10:45:37;101988.91;;;22.09;65.96
45523;BME280;31254;51.680;5.394;2023-08-17T10:51:02;101957.72;;;21.85;65.96
45523;BME280;31254;51.680;5.394;2023-08-17T10:53:46;102003.75;;;22.16;65.86
45523;BME280;31254;51.680;5.394;2023-08-17T10:56:16;101987.22;;;22.08;65.92
45523;BME280;31254;51.680;5.394;2023-08-17T10:58:43;101995.03;;;22.19;66.06
45523;BME280;31254;51.680;5.394;2023-08-17T11:01:33;101996.53;;;22.22;65.55
45523;BME280;31254;51.680;5.394;2023-08-17T11:04:17;101993.94;;;22.20;65.96
45523;BME280;31254;51.680;5.394;2023-08-17T11:06:44;101940.47;;;21.90;65.86
45523;BME280;31254;51.680;5.394;2023-08-17T11:09:22;102002.13;;;22.28;66.14
45523;BME280;31254;51.680;5.394;2023-08-17T11:11:55;101997.28;;;22.31;65.73
45523;BME280;31254;51.680;5.394;2023-08-17T11:15:18;101831.63;;;21.36;65.63
45523;BME280;31254;51.680;5.394;2023-08-17T11:26:25;101999.94;;;22.39;65.59
45523;BME280;31254;51.680;5.394;2023-08-17T11:29:52;101935.81;;;21.97;65.79
45523;BME280;31254;51.680;5.394;2023-08-17T11:32:24;102011.25;;;22.37;65.40
45523;BME280;31254;51.680;5.394;2023-08-17T11:35:12;101847.06;;;21.46;65.45
45523;BME280;31254;51.680;5.394;2023-08-17T11:37:45;101953.88;;;22.08;65.66
45523;BME280;31254;51.680;5.394;2023-08-17T11:40:15;101939.69;;;22.03;65.46
45523;BME280;31254;51.680;5.394;2023-08-17T11:42:55;101945.53;;;22.08;65.63
45523;BME280;31254;51.680;5.394;2023-08-17T11:45:31;102001.81;;;22.38;65.54
45523;BME280;31254;51.680;5.394;2023-08-17T11:47:57;101925.91;;;21.88;66.10
45523;BME280;31254;51.680;5.394;2023-08-17T11:50:38;101997.16;;;22.24;66.45
45523;BME280;31254;51.680;5.394;2023-08-17T11:53:17;101974.44;;;22.14;66.43
45523;BME280;31254;51.680;5.394;2023-08-17T11:55:50;101969.94;;;22.13;66.42
45523;BME280;31254;51.680;5.394;2023-08-17T11:58:36;101978.34;;;22.19;66.20
45523;BME280;31254;51.680;5.394;2023-08-17T12:08:44;101896.56;;;21.79;66.19
45523;BME280;31254;51.680;5.394;2023-08-17T12:12:10;101991.97;;;22.36;66.27
45523;BME280;31254;51.680;5.394;2023-08-17T12:14:54;101831.69;;;21.43;66.28
45523;BME280;31254;51.680;5.394;2023-08-17T12:20:33;101976.09;;;22.30;66.19
45523;BME280;31254;51.680;5.394;2023-08-17T12:23:10;101885.84;;;21.76;66.37
45523;BME280;31254;51.680;5.394;2023-08-17T12:25:43;101892.91;;;21.78;66.34
45523;BME280;31254;51.680;5.394;2023-08-17T12:28:12;101965.75;;;22.23;66.90
45523;BME280;31254;51.680;5.394;2023-08-17T12:30:45;101929.88;;;22.00;66.83
45523;BME280;31254;51.680;5.394;2023-08-17T12:33:11;101954.78;;;22.15;66.81
45523;BME280;31254;51.680;5.394;2023-08-17T12:35:38;101991.97;;;22.36;67.02
45523;BME280;31254;51.680;5.394;2023-08-17T12:38:11;101983.00;;;22.34;67.75
45523;BME280;31254;51.680;5.394;2023-08-17T12:40:44;101961.38;;;22.14;68.17
45523;BME280;31254;51.680;5.394;2023-08-17T12:43:10;101993.94;;;22.20;68.55
45523;BME280;31254;51.680;5.394;2023-08-17T12:45:40;101996.41;;;22.08;68.93
45523;BME280;31254;51.680;5.394;2023-08-17T12:48:14;101972.91;;;21.89;69.19
45523;BME280;31254;51.680;5.394;2023-08-17T12:51:01;101978.47;;;21.89;70.09
45523;BME280;31254;51.680;5.394;2023-08-17T12:53:29;101982.53;;;21.87;70.35
45523;BME280;31254;51.680;5.394;2023-08-17T12:56:02;101983.50;;;22.01;69.83
45523;BME280;31254;51.680;5.394;2023-08-17T12:58:28;101964.38;;;21.91;69.64
45523;BME280;31254;51.680;5.394;2023-08-17T13:01:02;101987.88;;;22.10;69.19
45523;BME280;31254;51.680;5.394;2023-08-17T13:03:35;102003.34;;;22.19;69.26
45523;BME280;31254;51.680;5.394;2023-08-17T13:06:02;101978.75;;;22.16;69.44
45523;BME280;31254;51.680;5.394;2023-08-17T13:08:29;101970.41;;;22.16;69.13
45523;BME280;31254;51.680;5.394;2023-08-17T13:11:02;101943.38;;;22.03;69.44
45523;BME280;31254;51.680;5.394;2023-08-17T13:13:28;101961.00;;;22.17;69.54
45523;BME280;31254;51.680;5.394;2023-08-17T13:16:02;101970.47;;;22.23;69.11
45523;BME280;31254;51.680;5.394;2023-08-17T13:18:31;101945.94;;;22.05;69.94
45523;BME280;31254;51.680;5.394;2023-08-17T13:20:58;101961.38;;;22.14;70.20
45523;BME280;31254;51.680;5.394;2023-08-17T13:23:31;101945.25;;;22.03;70.16
45523;BME280;31254;51.680;5.394;2023-08-17T13:26:05;101957.06;;;22.05;70.38
45523;BME280;31254;51.680;5.394;2023-08-17T13:28:38;101962.81;;;22.03;69.99
45523;BME280;31254;51.680;5.394;2023-08-17T13:31:05;101981.97;;;22.20;70.16
45523;BME280;31254;51.680;5.394;2023-08-17T13:33:49;101977.25;;;22.20;70.37
45523;BME280;31254;51.680;5.394;2023-08-17T13:36:22;101966.94;;;22.14;70.17
45523;BME280;31254;51.680;5.394;2023-08-17T13:38:49;101959.94;;;22.18;69.67
45523;BME280;31254;51.680;5.394;2023-08-17T13:41:15;101931.06;;;22.13;69.53
45523;BME280;31254;51.680;5.394;2023-08-17T13:43:48;101965.50;;;22.40;69.36
45523;BME280;31254;51.680;5.394;2023-08-17T13:46:24;101966.88;;;22.51;68.81
45523;BME280;31254;51.680;5.394;2023-08-17T13:48:50;101931.25;;;22.33;68.38